Time;durP1;ratioP1;P1;durP2;ratioP2;P2;SDS_P1;SDS_P2;PMS_P1;PMS_P2;Temp;Humidity;BMP_temperature;BMP_pressure;BME280_temperature;BME280_humidity;BME280_pressure;Samples;Min_cycle;Max_cycle;Signal;HPM_P1;HPM_P2
2023/02/06 00:00:38;;;;;;;26.25;8.25;;;4.50;99.90;;;;;;4944575;28;20188;-88
2023/02/06 00:03:09;;;;;;;23.63;6.10;;;4.40;1.00;;;;;;4982579;28;20271;-86
2023/02/06 00:06:28;;;;;;;22.95;6.35;;;4.40;1.00;;;;;;4965312;28;20299;-88
2023/02/06 00:09:19;;;;;;;21.02;5.32;;;4.40;1.00;;;;;;4937187;28;20613;-88
2023/02/06 00:12:12;;;;;;;35.75;6.55;;;4.40;1.00;;;;;;4974426;28;20583;-88
2023/02/06 00:14:38;;;;;;;31.40;6.30;;;4.40;1.00;;;;;;4973750;28;20228;-88
2023/02/06 00:17:35;;;;;;;22.60;5.07;;;4.40;1.00;;;;;;4971694;28;20235;-88
2023/02/06 00:30:08;;;;;;;;;;;;;;;;;;;;;
2023/02/06 00:33:37;;;;;;;;;;;;;;;;;;;;;
2023/02/06 00:36:51;;;;;;;22.48;5.32;;;4.20;47.60;;;;;;4972312;28;20188;-88
2023/02/06 00:40:07;;;;;;;29.63;4.57;;;4.10;21.60;;;;;;4910349;29;20955;-88
2023/02/06 00:43:24;;;;;;;24.98;4.43;;;4.10;99.70;;;;;;4954277;28;20185;-88
2023/02/06 01:27:36;;;;;;;30.70;5.47;;;3.70;1.00;;;;;;4247451;26;20219;-87
2023/02/06 01:30:44;;;;;;;;;;;;;;;;;;;;;
2023/02/06 01:46:00;;;;;;;26.10;6.03;;;3.50;1.00;;;;;;4986107;23;20234;-89
2023/02/06 01:49:23;;;;;;;29.58;8.40;;;3.50;1.00;;;;;;5004126;28;20241;-88
2023/02/06 01:52:53;;;;;;;;;;;;;;;;;;;;;
2023/02/06 01:55:46;;;;;;;31.00;5.57;;;3.50;1.00;;;;;;5013102;28;20198;-89
2023/02/06 01:59:01;;;;;;;24.45;5.10;;;3.40;1.00;;;;;;5000418;28;20219;-88
2023/02/06 02:05:26;;;;;;;36.92;7.75;;;3.40;1.00;;;;;;4993372;28;20323;-88
2023/02/06 02:08:35;;;;;;;20.88;4.68;;;3.40;1.00;;;;;;4938096;29;20204;-88
2023/02/06 02:25:14;;;;;;;32.28;5.85;;;3.30;99.90;;;;;;5005680;23;20263;-89
2023/02/06 02:28:21;;;;;;;32.15;5.93;;;3.20;99.90;;;;;;5023278;28;20261;-88
2023/02/06 02:49:44;;;;;;;25.38;6.43;;;3.10;99.90;;;;;;4970032;28;20283;-89
2023/02/06 02:53:04;;;;;;;;;;;;;;;;;;;;;
2023/02/06 02:55:59;;;;;;;27.23;5.40;;;3.10;99.90;;;;;;4967838;28;20196;-88
2023/02/06 03:02:51;;;;;;;;;;;;;;;;;;;;;
2023/02/06 03:05:45;;;;;;;27.38;5.40;;;3.00;99.90;;;;;;4974019;23;20707;-85
2023/02/06 03:09:00;;;;;;;;;;;;;;;;;;;;;
2023/02/06 03:25:42;;;;;;;25.35;6.32;;;2.80;99.90;;;;;;1191826;22;20680;-85
2023/02/06 03:29:05;;;;;;;29.70;5.25;;;2.80;99.90;;;;;;4989926;28;20230;-88
2023/02/06 03:32:05;;;;;;;24.58;6.47;;;2.80;99.90;;;;;;4986999;28;20195;-86
2023/02/06 03:56:08;;;;;;;26.45;6.97;;;2.60;99.90;;;;;;4989984;28;20219;-87
2023/02/06 03:58:33;;;;;;;23.08;5.55;;;2.60;99.90;;;;;;4986587;28;20199;-86
2023/02/06 04:02:07;;;;;;;31.97;6.60;;;2.60;99.90;;;;;;4989991;28;20266;-87
2023/02/06 04:04:41;;;;;;;35.28;6.35;;;2.60;99.90;;;;;;4990527;28;20215;-87
2023/02/06 04:07:13;;;;;;;30.75;6.57;;;2.60;99.90;;;;;;4989243;28;20215;-87
2023/02/06 04:09:39;;;;;;;25.08;7.07;;;2.50;99.90;;;;;;4989483;28;20194;-87
2023/02/06 04:12:05;;;;;;;28.93;6.77;;;2.50;99.90;;;;;;4988427;28;20574;-87
2023/02/06 04:14:34;;;;;;;25.90;5.90;;;2.60;99.90;;;;;;4988975;28;20480;-87
2023/02/06 04:16:59;;;;;;;33.13;5.95;;;2.60;99.90;;;;;;4989656;28;20438;-88
2023/02/06 04:19:25;;;;;;;25.40;5.87;;;2.50;99.90;;;;;;4989793;28;20194;-87
2023/02/06 04:21:50;;;;;;;31.60;7.70;;;2.50;99.90;;;;;;4983612;28;20294;-87
2023/02/06 04:24:16;;;;;;;26.23;6.90;;;2.50;99.90;;;;;;4990089;28;20211;-86
2023/02/06 04:26:42;;;;;;;26.83;6.07;;;2.50;99.90;;;;;;4989661;28;20302;-87
2023/02/06 04:29:15;;;;;;;32.17;7.20;;;2.40;99.90;;;;;;4988541;28;20191;-87
2023/02/06 04:31:43;;;;;;;31.10;6.60;;;2.40;99.90;;;;;;4989447;28;20191;-87
2023/02/06 04:34:15;;;;;;;19.33;7.38;;;2.40;99.90;;;;;;4989550;28;20206;-87
2023/02/06 04:36:51;;;;;;;25.25;6.10;;;2.40;99.90;;;;;;4989423;28;20218;-87
2023/02/06 04:39:20;;;;;;;32.22;6.05;;;2.30;99.90;;;;;;5005615;28;20651;-87
2023/02/06 04:41:54;;;;;;;29.42;7.10;;;2.30;99.90;;;;;;4983524;28;20191;-86
2023/02/06 04:44:20;;;;;;;38.40;7.82;;;2.30;99.90;;;;;;4989155;28;20233;-87
2023/02/06 04:46:48;;;;;;;33.33;7.53;;;2.30;99.90;;;;;;4991503;28;20215;-87
2023/02/06 04:49:19;;;;;;;41.90;7.70;;;2.30;99.90;;;;;;4989463;28;20784;-87
2023/02/06 04:51:45;;;;;;;47.20;8.88;;;2.30;99.90;;;;;;4981100;28;20192;-86
2023/02/06 04:54:14;;;;;;;32.90;8.00;;;2.30;99.90;;;;;;4995182;28;20310;-87
2023/02/06 04:56:40;;;;;;;32.65;8.45;;;2.20;99.90;;;;;;4991467;28;20266;-87
2023/02/06 04:59:24;;;;;;;30.33;8.43;;;2.20;99.90;;;;;;4990030;28;20294;-88
2023/02/06 05:06:28;;;;;;;27.27;7.80;;;2.30;99.90;;;;;;4885302;28;20231;-87
2023/02/06 05:13:15;;;;;;;33.10;7.45;;;2.40;99.90;;;;;;4873135;29;20623;-87
2023/02/06 05:18:16;;;;;;;58.60;9.88;;;2.60;99.90;;;;;;4990750;22;21029;-87
2023/02/06 05:20:47;;;;;;;27.10;7.50;;;2.70;99.90;;;;;;4972915;28;20185;-87
2023/02/06 05:23:15;;;;;;;40.17;8.32;;;2.70;99.90;;;;;;4969305;28;20435;-87
2023/02/06 05:25:43;;;;;;;30.88;8.45;;;2.80;99.90;;;;;;4971797;28;20196;-87
2023/02/06 05:28:17;;;;;;;46.90;8.80;;;2.80;99.90;;;;;;4975598;28;20215;-87
2023/02/06 05:30:47;;;;;;;34.80;9.63;;;2.90;99.90;;;;;;4974362;28;20172;-86
2023/02/06 05:33:13;;;;;;;43.65;11.20;;;3.00;99.90;;;;;;4971495;28;20223;-88
2023/02/06 05:35:39;;;;;;;57.30;10.03;;;3.00;99.90;;;;;;4977555;28;20286;-87
2023/02/06 05:38:05;;;;;;;31.63;7.80;;;3.10;99.90;;;;;;4973647;28;20255;-87
2023/02/06 05:40:31;;;;;;;56.10;10.47;;;3.10;99.90;;;;;;4973712;28;20193;-88
2023/02/06 05:43:11;;;;;;;50.47;12.33;;;3.20;99.90;;;;;;4972700;28;20470;-87
2023/02/06 05:45:41;;;;;;;55.53;10.38;;;3.20;99.90;;;;;;4973180;28;20216;-87
2023/02/06 05:48:10;;;;;;;52.88;12.05;;;3.20;99.90;;;;;;4972534;28;20196;-87
2023/02/06 05:50:42;;;;;;;65.82;13.75;;;3.20;99.90;;;;;;4972655;28;20191;-87
2023/02/06 05:53:10;;;;;;;48.78;11.25;;;3.20;99.90;;;;;;4976579;28;20200;-87
2023/02/06 05:55:35;;;;;;;75.40;13.73;;;3.30;99.90;;;;;;4974269;28;20196;-87
2023/02/06 05:58:03;;;;;;;46.67;9.80;;;3.30;99.90;;;;;;4973070;28;20191;-87
2023/02/06 06:00:29;;;;;;;45.28;12.15;;;3.30;99.90;;;;;;4975007;28;20180;-87
2023/02/06 06:03:02;;;;;;;49.33;10.70;;;3.30;99.90;;;;;;4970160;28;20176;-87
2023/02/06 06:05:28;;;;;;;54.10;10.20;;;3.30;99.90;;;;;;4972754;28;20704;-89
2023/02/06 06:07:53;;;;;;;40.73;9.43;;;3.30;99.90;;;;;;4971216;28;20251;-87
2023/02/06 06:10:19;;;;;;;49.53;11.80;;;3.40;99.90;;;;;;4975519;28;20652;-88
2023/02/06 06:12:45;;;;;;;54.63;11.17;;;3.30;99.90;;;;;;4971369;28;20270;-88
2023/02/06 06:15:13;;;;;;;61.20;11.50;;;3.30;99.90;;;;;;4973867;28;20455;-87
2023/02/06 06:17:38;;;;;;;44.97;12.50;;;3.40;99.90;;;;;;4970769;28;20192;-87
2023/02/06 06:20:12;;;;;;;45.37;13.93;;;3.40;99.90;;;;;;4973053;28;20208;-87
2023/02/06 06:22:37;;;;;;;49.20;11.98;;;3.40;1.00;;;;;;4971502;28;20199;-87
2023/02/06 06:25:05;;;;;;;31.23;10.83;;;3.40;1.00;;;;;;4979857;28;20204;-88
2023/02/06 06:27:33;;;;;;;35.50;10.40;;;3.40;1.00;;;;;;4968872;28;20200;-87
2023/02/06 06:30:04;;;;;;;45.47;10.70;;;3.40;1.00;;;;;;4972992;28;20263;-88
2023/02/06 06:32:29;;;;;;;39.10;9.20;;;3.40;1.00;;;;;;4974428;28;20259;-88
2023/02/06 06:34:57;;;;;;;37.60;10.47;;;3.40;1.00;;;;;;4973514;28;20299;-88
2023/02/06 06:37:23;;;;;;;39.65;9.57;;;3.40;1.00;;;;;;4974234;28;20180;-87
2023/02/06 06:39:48;;;;;;;37.37;10.23;;;3.40;1.00;;;;;;4975881;28;20190;-87
2023/02/06 06:42:14;;;;;;;40.53;11.57;;;3.50;1.00;;;;;;4986159;28;20225;-87
2023/02/06 06:44:39;;;;;;;31.93;9.57;;;3.50;1.00;;;;;;4973981;28;20203;-87
2023/02/06 06:47:05;;;;;;;25.77;8.40;;;3.50;1.00;;;;;;4974179;28;20198;-86
2023/02/06 06:49:32;;;;;;;28.93;8.77;;;3.50;1.00;;;;;;4975969;28;20641;-89
2023/02/06 06:52:00;;;;;;;26.38;8.40;;;3.50;1.00;;;;;;4973009;28;20177;-89
2023/02/06 06:54:26;;;;;;;30.27;9.15;;;3.50;1.00;;;;;;4973521;28;20204;-89
2023/02/06 06:56:57;;;;;;;58.57;9.10;;;3.50;1.00;;;;;;4971696;28;20239;-90
2023/02/06 06:59:24;;;;;;;29.17;8.65;;;3.50;1.00;;;;;;4986139;28;20523;-87
2023/02/06 07:01:51;;;;;;;31.15;8.77;;;3.50;1.00;;;;;;4975409;28;20188;-89
2023/02/06 07:04:20;;;;;;;51.50;10.32;;;3.50;1.00;;;;;;4974983;28;20204;-88
2023/02/06 07:06:48;;;;;;;35.90;9.75;;;3.50;1.00;;;;;;4971465;28;20251;-88
2023/02/06 07:09:27;;;;;;;35.40;8.80;;;3.60;1.00;;;;;;4973094;28;20173;-87
2023/02/06 07:12:16;;;;;;;36.40;10.65;;;3.70;1.00;;;;;;4968901;28;20203;-87
2023/02/06 07:15:07;;;;;;;39.85;9.18;;;3.70;1.00;;;;;;4970047;28;20208;-87
2023/02/06 07:17:44;;;;;;;16.50;9.05;;;3.80;1.00;;;;;;4988538;28;20234;-88
2023/02/06 07:20:15;;;;;;;26.15;9.43;;;3.90;1.00;;;;;;4972873;28;20193;-86
2023/02/06 07:22:49;;;;;;;36.33;10.30;;;3.90;1.00;;;;;;4972924;28;20814;-88
2023/02/06 07:25:19;;;;;;;24.70;8.63;;;4.00;1.00;;;;;;4970929;28;20228;-87
2023/02/06 07:27:45;;;;;;;34.95;10.27;;;4.00;1.00;;;;;;4971149;28;20215;-87
2023/02/06 07:30:17;;;;;;;29.48;10.95;;;3.90;1.00;;;;;;4969053;28;20194;-87
2023/02/06 07:32:46;;;;;;;25.00;9.55;;;3.90;1.00;;;;;;4973834;28;20304;-87
2023/02/06 07:35:14;;;;;;;36.85;10.95;;;4.00;1.00;;;;;;4962892;28;20209;-87
2023/02/06 07:37:39;;;;;;;42.95;10.73;;;4.00;1.00;;;;;;4970813;28;20619;-87
2023/02/06 07:40:06;;;;;;;31.73;10.70;;;4.10;1.00;;;;;;4972634;28;20208;-87
2023/02/06 07:42:32;;;;;;;31.90;10.60;;;4.20;1.00;;;;;;4973295;28;20188;-88
2023/02/06 07:44:58;;;;;;;33.53;9.70;;;4.20;1.00;;;;;;4972676;28;20207;-88
2023/02/06 07:47:33;;;;;;;41.80;9.70;;;4.20;1.00;;;;;;4968037;28;20204;-86
2023/02/06 07:50:03;;;;;;;51.30;10.50;;;4.20;1.00;;;;;;4967133;28;20434;-88
2023/02/06 07:52:29;;;;;;;43.30;8.65;;;4.20;1.00;;;;;;4968456;28;20185;-87
2023/02/06 07:54:57;;;;;;;40.47;9.00;;;4.30;1.00;;;;;;4970885;28;20192;-88
2023/02/06 07:57:23;;;;;;;30.13;7.75;;;4.30;99.90;;;;;;4969137;28;20594;-88
2023/02/06 07:59:48;;;;;;;19.60;6.23;;;4.30;99.90;;;;;;4972167;28;20211;-87
2023/02/06 08:02:17;;;;;;;36.83;8.10;;;4.30;99.90;;;;;;4968065;28;20195;-88
2023/02/06 08:04:42;;;;;;;30.95;6.95;;;4.30;99.90;;;;;;4968365;28;20294;-88
2023/02/06 08:07:13;;;;;;;39.33;8.97;;;4.30;99.90;;;;;;4972106;28;20731;-88
2023/02/06 08:09:41;;;;;;;38.90;8.68;;;4.40;99.90;;;;;;4973067;28;20207;-88
2023/02/06 08:12:07;;;;;;;29.70;9.05;;;4.40;99.90;;;;;;4970148;28;20649;-88
2023/02/06 08:14:32;;;;;;;31.83;8.75;;;4.50;99.90;;;;;;4975519;28;20210;-88
2023/02/06 08:16:58;;;;;;;41.53;9.23;;;4.50;99.90;;;;;;4992610;28;20180;-88
2023/02/06 08:19:24;;;;;;;21.27;7.07;;;4.60;99.90;;;;;;4991573;28;20200;-87
2023/02/06 08:21:49;;;;;;;32.30;8.27;;;4.60;99.90;;;;;;4972927;28;20188;-88
2023/02/06 08:24:15;;;;;;;41.97;10.17;;;4.60;99.90;;;;;;4967396;28;20219;-88
2023/02/06 08:26:42;;;;;;;32.73;8.33;;;4.60;99.90;;;;;;4961228;28;20204;-87
2023/02/06 08:29:08;;;;;;;36.28;8.10;;;4.60;99.90;;;;;;4963744;28;20707;-87
2023/02/06 08:31:37;;;;;;;31.92;8.77;;;4.60;99.90;;;;;;4970677;28;20559;-88
2023/02/06 08:34:04;;;;;;;28.40;8.27;;;4.70;99.90;;;;;;4967294;28;20200;-89
2023/02/06 08:36:30;;;;;;;22.55;8.70;;;4.70;99.90;;;;;;4968873;28;20590;-89
2023/02/06 08:39:00;;;;;;;28.08;7.63;;;4.80;99.90;;;;;;4969576;28;20283;-88
2023/02/06 08:41:31;;;;;;;35.95;8.23;;;4.80;99.90;;;;;;4965952;28;20180;-88
2023/02/06 08:43:59;;;;;;;24.90;7.68;;;4.90;99.90;;;;;;4965755;28;21743;-88
2023/02/06 08:46:27;;;;;;;26.20;10.00;;;5.00;99.90;;;;;;4959122;28;20192;-88
2023/02/06 08:49:04;;;;;;;27.85;10.00;;;5.10;99.90;;;;;;4967230;28;20555;-89
2023/02/06 08:51:31;;;;;;;25.40;10.70;;;5.10;99.90;;;;;;4971700;28;20550;-87
2023/02/06 08:53:58;;;;;;;24.77;11.68;;;5.20;99.90;;;;;;4970940;28;20242;-88
2023/02/06 08:56:27;;;;;;;22.45;9.40;;;5.20;99.90;;;;;;4970139;28;20180;-88
2023/02/06 08:58:53;;;;;;;28.70;10.73;;;5.40;99.90;;;;;;4978648;28;20183;-89
2023/02/06 09:01:20;;;;;;;30.37;9.80;;;5.50;99.90;;;;;;4978198;28;20276;-88
2023/02/06 09:06:18;;;;;;;33.88;9.43;;;5.70;1.00;;;;;;4991479;28;20226;-89
2023/02/06 09:08:54;;;;;;;26.87;10.40;;;5.70;99.90;;;;;;4993898;28;20672;-89
2023/02/06 09:11:22;;;;;;;27.40;10.82;;;5.70;99.90;;;;;;4991211;28;20195;-89
2023/02/06 09:13:48;;;;;;;29.60;10.95;;;5.80;1.00;;;;;;4993298;28;20211;-88
2023/02/06 09:16:16;;;;;;;31.35;9.85;;;6.00;1.00;;;;;;4987472;28;20219;-88
2023/02/06 09:18:42;;;;;;;35.55;9.38;;;6.20;99.90;;;;;;4991580;28;20611;-89
2023/02/06 09:21:10;;;;;;;29.77;10.70;;;6.40;99.90;;;;;;4999059;28;20242;-89
2023/02/06 09:24:12;;;;;;;25.63;9.07;;;6.50;1.00;;;;;;4991396;28;20444;-90
2023/02/06 09:26:39;;;;;;;25.13;9.52;;;6.60;1.00;;;;;;4896594;29;20261;-88
2023/02/06 09:29:32;;;;;;;26.45;8.40;;;6.70;1.00;;;;;;4970369;28;20267;-87
2023/02/06 09:31:58;;;;;;;36.00;11.32;;;6.70;54.00;;;;;;4991267;28;20176;-88
2023/02/06 09:34:24;;;;;;;21.57;9.97;;;6.80;66.00;;;;;;4993418;28;20261;-86
2023/02/06 09:36:56;;;;;;;27.77;11.05;;;6.90;1.00;;;;;;4992921;28;20545;-87
2023/02/06 09:39:22;;;;;;;21.50;8.60;;;7.00;1.00;;;;;;4989196;28;20183;-87
2023/02/06 09:42:01;;;;;;;16.97;7.77;;;7.10;99.90;;;;;;4992995;28;20206;-87
2023/02/06 09:44:26;;;;;;;23.33;8.80;;;7.00;99.90;;;;;;4986624;28;20219;-87
2023/02/06 09:47:01;;;;;;;22.17;9.73;;;6.90;99.90;;;;;;4988888;28;20551;-88
2023/02/06 09:49:38;;;;;;;17.45;9.23;;;7.00;99.90;;;;;;4992723;28;20183;-88
2023/02/06 09:52:28;;;;;;;32.78;10.55;;;7.00;1.00;;;;;;4986799;28;20314;-87
2023/02/06 09:55:19;;;;;;;21.80;9.20;;;7.00;99.90;;;;;;5001491;28;20199;-89
2023/02/06 09:58:05;;;;;;;25.80;9.68;;;6.90;1.00;;;;;;4991476;28;20199;-88
2023/02/06 10:01:11;;;;;;;46.15;13.50;;;6.90;1.00;;;;;;4990809;28;22666;-89
2023/02/06 10:03:55;;;;;;;29.10;11.52;;;6.80;99.90;;;;;;4988114;28;20218;-88
2023/02/06 10:06:38;;;;;;;28.17;11.73;;;6.70;99.90;;;;;;4986717;28;20199;-88
2023/02/06 10:09:15;;;;;;;38.45;11.10;;;6.60;99.90;;;;;;4992358;28;20218;-88
2023/02/06 10:12:09;;;;;;;33.88;10.93;;;6.60;99.90;;;;;;4983061;28;20695;-89
2023/02/06 10:14:57;;;;;;;31.00;10.13;;;6.60;99.90;;;;;;4959897;28;20208;-89
2023/02/06 10:17:32;;;;;;;24.63;9.85;;;6.80;1.00;;;;;;4995343;28;20180;-90
2023/02/06 10:20:20;;;;;;;32.28;9.98;;;7.00;1.00;;;;;;4990229;28;20550;-89
2023/02/06 10:23:02;;;;;;;24.20;9.05;;;7.20;1.00;;;;;;4986083;28;20198;-89
2023/02/06 10:25:38;;;;;;;27.85;9.95;;;7.30;99.90;;;;;;4988077;28;20209;-88
2023/02/06 10:28:22;;;;;;;21.80;9.63;;;7.20;96.80;;;;;;4990172;28;20212;-89
2023/02/06 10:31:11;;;;;;;24.77;9.95;;;7.10;99.90;;;;;;4990325;28;20206;-89
2023/02/06 10:33:43;;;;;;;19.92;9.15;;;7.10;99.90;;;;;;4989375;28;20180;-89
2023/02/06 10:36:24;;;;;;;17.55;9.32;;;7.00;1.00;;;;;;4984848;28;20538;-88
2023/02/06 10:39:17;;;;;;;29.63;9.70;;;6.90;99.90;;;;;;4991425;28;20242;-87
2023/02/06 10:42:19;;;;;;;23.60;10.68;;;6.90;99.90;;;;;;4987421;28;20199;-88
2023/02/06 10:44:54;;;;;;;26.42;13.43;;;6.80;99.90;;;;;;4989817;28;20211;-87
2023/02/06 10:47:48;;;;;;;30.80;12.18;;;6.70;99.90;;;;;;4986618;28;20580;-87
2023/02/06 10:50:28;;;;;;;23.60;9.65;;;6.80;99.90;;;;;;4991044;28;20184;-89
2023/02/06 10:53:31;;;;;;;28.42;12.65;;;6.80;99.90;;;;;;4986645;28;20207;-88
2023/02/06 10:56:08;;;;;;;32.63;11.80;;;6.90;1.00;;;;;;4984787;28;20195;-89
2023/02/06 10:58:39;;;;;;;24.92;10.32;;;7.00;1.00;;;;;;4988586;28;20183;-89
2023/02/06 11:01:10;;;;;;;22.45;9.75;;;7.10;1.00;;;;;;4990150;28;20195;-88
2023/02/06 11:03:41;;;;;;;21.20;10.57;;;7.20;99.90;;;;;;4988121;28;20339;-89
2023/02/06 11:06:33;;;;;;;19.92;11.25;;;7.30;99.90;;;;;;4993528;28;20284;-87
2023/02/06 11:09:02;;;;;;;28.67;11.50;;;7.40;99.90;;;;;;4988499;28;20241;-87
2023/02/06 11:12:01;;;;;;;23.63;11.35;;;7.40;1.00;;;;;;4987645;28;20218;-88
2023/02/06 11:14:56;;;;;;;24.40;10.70;;;7.50;1.00;;;;;;4992422;28;20191;-87
2023/02/06 11:17:26;;;;;;;25.65;12.25;;;7.60;1.00;;;;;;4983825;28;20199;-87
2023/02/06 11:19:57;;;;;;;29.27;11.65;;;7.80;1.00;;;;;;4986617;28;20234;-89
2023/02/06 11:22:31;;;;;;;22.50;12.05;;;7.80;1.00;;;;;;4990044;28;20195;-89
2023/02/06 11:25:02;;;;;;;38.95;14.80;;;7.90;7.20;;;;;;4998338;28;20637;-88
2023/02/06 11:27:28;;;;;;;26.63;14.00;;;7.90;43.50;;;;;;4988095;28;20226;-87
2023/02/06 11:29:54;;;;;;;32.95;15.38;;;7.90;43.00;;;;;;4983112;28;20180;-89
2023/02/06 11:32:51;;;;;;;30.37;15.07;;;7.90;1.00;;;;;;4990007;28;20543;-88
2023/02/06 11:35:30;;;;;;;36.65;17.48;;;7.90;1.00;;;;;;4985662;28;20298;-88
2023/02/06 11:38:23;;;;;;;34.35;14.82;;;7.80;1.00;;;;;;4983045;28;20655;-89
2023/02/06 11:41:15;;;;;;;35.83;16.10;;;7.90;38.60;;;;;;4988364;28;20199;-88
2023/02/06 11:43:53;;;;;;;30.77;14.97;;;8.10;99.90;;;;;;4988841;28;20493;-88
2023/02/06 11:46:27;;;;;;;23.08;13.60;;;8.20;1.00;;;;;;4989376;28;20442;-89
2023/02/06 11:48:57;;;;;;;20.40;12.67;;;8.30;29.80;;;;;;4986794;28;20207;-88
2023/02/06 11:51:23;;;;;;;21.53;11.57;;;8.30;1.00;;;;;;5000814;28;20438;-89
2023/02/06 11:54:01;;;;;;;26.70;12.37;;;8.40;1.00;;;;;;4988461;28;21299;-89
2023/02/06 11:56:28;;;;;;;18.60;9.83;;;8.60;1.00;;;;;;4990170;28;20435;-90
2023/02/06 11:59:25;;;;;;;22.20;11.30;;;8.50;1.00;;;;;;4988342;28;20855;-90
2023/02/06 12:01:51;;;;;;;24.80;12.90;;;8.50;1.00;;;;;;4972383;28;20439;-88
2023/02/06 12:04:24;;;;;;;26.40;12.90;;;8.40;99.90;;;;;;4988792;28;20454;-89
2023/02/06 12:07:46;;;;;;;22.13;13.65;;;8.30;99.90;;;;;;4983273;28;20850;-89
2023/02/06 12:10:14;;;;;;;21.55;12.27;;;8.30;1.00;;;;;;4964302;28;20262;-89
2023/02/06 12:12:45;;;;;;;31.23;12.37;;;8.40;1.00;;;;;;4986031;28;20220;-88
2023/02/06 12:15:17;;;;;;;26.30;11.27;;;8.80;1.00;;;;;;4990531;28;20593;-87
2023/02/06 12:18:12;;;;;;;20.50;11.50;;;9.10;1.00;;;;;;4988231;28;20445;-89
2023/02/06 12:21:02;;;;;;;22.33;12.67;;;9.20;99.90;;;;;;4986669;28;20434;-89
2023/02/06 12:23:57;;;;;;;22.20;12.30;;;9.20;99.90;;;;;;4982260;28;20427;-89
2023/02/06 12:26:33;;;;;;;22.60;12.77;;;9.00;99.90;;;;;;4987672;28;20467;-86
2023/02/06 12:29:16;;;;;;;29.55;15.35;;;8.80;99.90;;;;;;5002699;28;20441;-87
2023/02/06 12:32:04;;;;;;;30.33;13.70;;;8.70;99.90;;;;;;4989236;28;20191;-88
2023/02/06 12:34:47;;;;;;;24.37;12.57;;;8.90;99.90;;;;;;4986933;28;20449;-88
2023/02/06 12:37:51;;;;;;;32.53;15.00;;;9.60;99.90;;;;;;4992091;28;20525;-88
2023/02/06 12:40:44;;;;;;;23.43;12.83;;;11.10;99.90;;;;;;4951488;28;20477;-88
2023/02/06 12:43:16;;;;;;;32.17;16.10;;;12.60;1.00;;;;;;4991730;28;20434;-88
2023/02/06 12:45:53;;;;;;;32.40;16.17;;;13.40;1.00;;;;;;4993401;28;20548;-90
2023/02/06 12:52:03;;;;;;;26.87;15.37;;;15.70;1.00;;;;;;4980301;28;21177;-88
2023/02/06 12:54:52;;;;;;;20.60;14.27;;;16.60;99.90;;;;;;4968030;28;20469;-88
2023/02/06 12:57:40;;;;;;;24.20;14.33;;;17.20;99.90;;;;;;4993161;28;21058;-88
2023/02/06 13:00:27;;;;;;;24.10;12.67;;;17.40;99.90;;;;;;4990403;28;20489;-89
2023/02/06 13:03:10;;;;;;;26.60;13.97;;;17.50;99.90;;;;;;4989985;28;20438;-88
2023/02/06 13:05:52;;;;;;;26.13;12.93;;;17.80;99.90;;;;;;4994139;28;20469;-89
2023/02/06 13:09:09;;;;;;;26.17;12.10;;;17.90;99.90;;;;;;4993011;28;20469;-89
2023/02/06 13:11:39;;;;;;;28.30;13.60;;;17.30;99.90;;;;;;4987723;28;20442;-89
2023/02/06 13:14:24;;;;;;;29.10;12.00;;;16.50;99.90;;;;;;4993158;28;20621;-89
2023/02/06 13:17:18;;;;;;;24.13;12.83;;;15.80;99.90;;;;;;4991603;28;20441;-88
2023/02/06 13:20:00;;;;;;;33.20;12.90;;;15.10;99.90;;;;;;4991346;28;20957;-88
2023/02/06 13:22:52;;;;;;;29.07;14.60;;;14.70;99.90;;;;;;4989760;28;21449;-89
2023/02/06 13:25:30;;;;;;;26.90;13.50;;;14.30;99.90;;;;;;4991442;28;20449;-88
2023/02/06 13:28:01;;;;;;;26.43;13.57;;;13.90;99.90;;;;;;4979520;28;20497;-87
2023/02/06 13:30:51;;;;;;;33.33;14.83;;;13.70;99.90;;;;;;4992458;28;20956;-88
2023/02/06 13:33:23;;;;;;;25.70;11.93;;;13.50;99.90;;;;;;4990144;28;20446;-89
2023/02/06 13:35:57;;;;;;;32.50;11.70;;;13.50;99.90;;;;;;4991400;28;20458;-88
2023/02/06 13:38:23;;;;;;;37.10;13.27;;;13.20;99.90;;;;;;4991391;28;20468;-88
2023/02/06 13:41:13;;;;;;;33.07;14.37;;;12.80;99.90;;;;;;4993054;28;20430;-88
2023/02/06 13:43:46;;;;;;;35.50;12.90;;;12.60;99.90;;;;;;4991161;28;20192;-88
2023/02/06 13:46:16;;;;;;;25.80;13.60;;;12.30;99.90;;;;;;4983119;28;20439;-88
2023/02/06 13:49:19;;;;;;;33.93;15.10;;;12.10;99.90;;;;;;4996649;28;20439;-89
2023/02/06 13:52:24;;;;;;;38.90;16.63;;;11.80;99.90;;;;;;4993523;28;20438;-87
2023/02/06 13:54:52;;;;;;;32.87;14.87;;;11.50;99.90;;;;;;4977927;28;20524;-88
2023/02/06 13:58:00;;;;;;;33.07;15.50;;;11.30;99.90;;;;;;4994766;28;20481;-88
2023/02/06 14:00:38;;;;;;;39.07;15.80;;;11.10;99.90;;;;;;4991010;28;20462;-87
2023/02/06 14:03:33;;;;;;;28.93;14.40;;;10.90;99.90;;;;;;4993354;28;20434;-88
2023/02/06 14:06:26;;;;;;;44.90;16.90;;;10.70;99.90;;;;;;4995690;28;20443;-88
2023/02/06 14:09:33;;;;;;;45.70;16.80;;;10.60;99.90;;;;;;4993443;28;20830;-88
2023/02/06 14:12:34;;;;;;;37.27;16.23;;;10.50;99.90;;;;;;4990961;28;20430;-88
2023/02/06 14:15:26;;;;;;;40.70;17.33;;;10.40;99.90;;;;;;4992343;28;20450;-88
2023/02/06 14:18:19;;;;;;;37.40;16.20;;;10.10;99.90;;;;;;4989421;28;20473;-89
2023/02/06 14:21:02;;;;;;;39.63;18.97;;;10.10;99.90;;;;;;4991141;28;20439;-89
2023/02/06 14:23:58;;;;;;;37.10;18.17;;;10.00;99.90;;;;;;4991018;28;20493;-88
2023/02/06 14:26:51;;;;;;;41.53;18.70;;;10.00;99.90;;;;;;4988645;28;20530;-89
2023/02/06 14:29:43;;;;;;;35.53;16.30;;;10.00;99.90;;;;;;4992627;28;20445;-89
2023/02/06 14:32:46;;;;;;;39.33;16.67;;;10.00;99.90;;;;;;4987205;28;20450;-89
2023/02/06 14:35:48;;;;;;;32.57;16.13;;;10.10;99.90;;;;;;4988234;28;20458;-89
2023/02/06 14:38:55;;;;;;;37.40;15.73;;;10.20;99.90;;;;;;4986697;28;20497;-88
2023/02/06 14:41:21;;;;;;;31.47;14.00;;;10.20;99.90;;;;;;4938878;28;20544;-88
2023/02/06 14:43:49;;;;;;;36.53;14.77;;;10.20;99.90;;;;;;4944031;29;20509;-89
2023/02/06 14:46:17;;;;;;;32.27;15.63;;;10.20;99.90;;;;;;4986222;28;20950;-89
2023/02/06 14:48:52;;;;;;;25.13;14.03;;;10.30;99.90;;;;;;4993257;28;20427;-90
2023/02/06 14:51:34;;;;;;;44.50;17.60;;;10.30;99.90;;;;;;4985804;28;20501;-89
2023/02/06 14:54:02;;;;;;;35.97;14.97;;;10.30;99.90;;;;;;4988047;28;20455;-86
2023/02/06 14:56:40;;;;;;;40.97;14.43;;;10.40;99.90;;;;;;4988594;28;20453;-89
2023/02/06 14:59:18;;;;;;;34.03;16.30;;;10.40;99.90;;;;;;4989744;28;20422;-89
2023/02/06 15:01:48;;;;;;;50.83;15.70;;;10.40;99.90;;;;;;4991450;28;20430;-88
2023/02/06 15:04:43;;;;;;;31.30;14.43;;;10.30;99.90;;;;;;4992858;28;20450;-88
2023/02/06 15:07:20;;;;;;;36.20;15.87;;;10.30;99.90;;;;;;4987809;28;20499;-88
2023/02/06 15:09:55;;;;;;;36.00;16.20;;;10.20;1.00;;;;;;4985955;28;20870;-88
2023/02/06 15:12:25;;;;;;;34.47;15.10;;;10.00;99.90;;;;;;4986649;28;20469;-88
2023/02/06 15:14:57;;;;;;;33.87;14.67;;;9.80;1.00;;;;;;4990739;28;20928;-87
2023/02/06 15:17:25;;;;;;;41.40;16.40;;;9.80;1.00;;;;;;4991641;28;20546;-87
2023/02/06 15:19:54;;;;;;;38.33;17.63;;;9.80;1.00;;;;;;4987975;28;20934;-88
2023/02/06 15:22:28;;;;;;;40.10;17.80;;;9.70;1.00;;;;;;4991909;28;20708;-89
2023/02/06 15:25:16;;;;;;;40.67;16.33;;;9.60;1.00;;;;;;4989140;28;20492;-88
2023/02/06 15:27:44;;;;;;;38.37;16.90;;;9.50;1.00;;;;;;4985617;28;20434;-86
2023/02/06 15:30:22;;;;;;;39.67;17.90;;;9.50;1.00;;;;;;4986447;28;20435;-87
2023/02/06 15:32:55;;;;;;;47.53;19.60;;;9.40;1.00;;;;;;5001058;28;20438;-87
2023/02/06 15:35:28;;;;;;;39.20;17.57;;;9.40;1.00;;;;;;5002131;28;20819;-88
2023/02/06 15:37:55;;;;;;;38.47;16.20;;;9.40;1.00;;;;;;4980716;28;20543;-89
2023/02/06 15:40:37;;;;;;;36.70;18.00;;;9.30;1.00;;;;;;4992218;28;20801;-88
2023/02/06 15:43:04;;;;;;;42.23;18.50;;;9.20;1.00;;;;;;4988297;28;20430;-89
2023/02/06 15:45:35;;;;;;;37.17;17.50;;;9.10;1.00;;;;;;4988797;28;20486;-88
2023/02/06 15:48:16;;;;;;;44.07;20.20;;;9.10;1.00;;;;;;4984634;28;20430;-87
2023/02/06 15:51:13;;;;;;;37.80;17.50;;;9.10;1.00;;;;;;4996206;28;20434;-89
2023/02/06 15:53:41;;;;;;;43.30;16.80;;;9.00;1.00;;;;;;4988736;28;20426;-88
2023/02/06 15:56:27;;;;;;;42.53;18.75;;;9.00;1.00;;;;;;4989703;28;20439;-87
2023/02/06 15:58:59;;;;;;;37.17;18.60;;;9.00;1.00;;;;;;4995408;28;20202;-88
2023/02/06 16:01:28;;;;;;;46.25;18.90;;;8.90;1.00;;;;;;4991528;28;20431;-90
2023/02/06 16:04:12;;;;;;;49.85;19.08;;;8.90;1.00;;;;;;4984890;28;20795;-88
2023/02/06 16:07:21;;;;;;;43.40;18.13;;;8.90;1.00;;;;;;4986799;28;20184;-88
2023/02/06 16:10:07;;;;;;;42.97;17.05;;;8.80;1.00;;;;;;4974367;28;20442;-88
2023/02/06 16:12:40;;;;;;;42.40;17.58;;;8.80;1.00;;;;;;4985095;28;20315;-88
2023/02/06 16:15:27;;;;;;;40.00;17.80;;;8.80;2.00;;;;;;4992591;28;20195;-88
2023/02/06 16:17:54;;;;;;;47.50;18.37;;;8.80;23.00;;;;;;4998844;28;20534;-87
2023/02/06 16:20:33;;;;;;;35.42;16.90;;;8.70;39.20;;;;;;4991597;28;20485;-87
2023/02/06 16:23:23;;;;;;;31.70;14.52;;;8.70;73.00;;;;;;4989686;28;20297;-87
2023/02/06 16:26:16;;;;;;;35.72;15.43;;;8.70;92.40;;;;;;4986882;28;20279;-88